sensor_id;sensor_type;location;lat;lon;timestamp;pressure;altitude;pressure_sealevel;temperature;humidity
57904;BME280;43720;47.462;19.030;2023-02-13T05:07:12;102477.94;;;-1.40;91.30
57904;BME280;43720;47.462;19.030;2023-02-13T05:10:15;102486.88;;;-1.45;92.01
57904;BME280;43720;47.462;19.030;2023-02-13T05:13:17;102474.19;;;-1.44;91.42
57904;BME280;43720;47.462;19.030;2023-02-13T05:16:22;102474.06;;;-1.54;91.65
57904;BME280;43720;47.462;19.030;2023-02-13T05:19:24;102468.34;;;-1.60;92.09
57904;BME280;43720;47.462;19.030;2023-02-13T05:22:27;102468.94;;;-1.63;91.03
57904;BME280;43720;47.462;19.030;2023-02-13T05:25:48;102466.56;;;-1.70;92.69
57904;BME280;43720;47.462;19.030;2023-02-13T05:28:50;102469.75;;;-1.81;92.58
57904;BME280;43720;47.462;19.030;2023-02-13T05:32:11;102472.59;;;-1.95;93.98
57904;BME280;43720;47.462;19.030;2023-02-13T05:35:14;102461.16;;;-1.82;93.98
57904;BME280;43720;47.462;19.030;2023-02-13T05:38:16;102464.91;;;-1.95;93.69
57904;BME280;43720;47.462;19.030;2023-02-13T05:41:18;102463.69;;;-1.90;93.83
57904;BME280;43720;47.462;19.030;2023-02-13T05:44:20;102462.81;;;-2.08;94.23
57904;BME280;43720;47.462;19.030;2023-02-13T05:47:23;102472.44;;;-1.88;93.26
57904;BME280;43720;47.462;19.030;2023-02-13T05:50:25;102473.03;;;-1.82;92.31
57904;BME280;43720;47.462;19.030;2023-02-13T05:53:29;102473.81;;;-1.92;92.56
57904;BME280;43720;47.462;19.030;2023-02-13T05:56:32;102471.22;;;-1.83;92.03
57904;BME280;43720;47.462;19.030;2023-02-13T05:59:34;102475.59;;;-1.82;92.24
57904;BME280;43720;47.462;19.030;2023-02-13T06:02:37;102478.03;;;-2.18;94.01
57904;BME280;43720;47.462;19.030;2023-02-13T06:05:39;102475.94;;;-2.05;94.57
57904;BME280;43720;47.462;19.030;2023-02-13T06:08:42;102477.56;;;-2.06;94.46
57904;BME280;43720;47.462;19.030;2023-02-13T06:11:44;102487.37;;;-1.93;93.37
57904;BME280;43720;47.462;19.030;2023-02-13T06:14:47;102499.41;;;-2.09;94.19
57904;BME280;43720;47.462;19.030;2023-02-13T06:17:49;102500.19;;;-1.93;93.39
57904;BME280;43720;47.462;19.030;2023-02-13T06:20:51;102498.97;;;-1.79;92.54
57904;BME280;43720;47.462;19.030;2023-02-13T06:23:54;102507.00;;;-1.93;93.04
57904;BME280;43720;47.462;19.030;2023-02-13T06:26:56;102514.19;;;-2.07;94.09
57904;BME280;43720;47.462;19.030;2023-02-13T06:29:59;102516.00;;;-2.06;94.63
57904;BME280;43720;47.462;19.030;2023-02-13T06:33:01;102504.44;;;-1.93;93.82
57904;BME280;43720;47.462;19.030;2023-02-13T06:36:04;102520.72;;;-1.93;94.18
57904;BME280;43720;47.462;19.030;2023-02-13T06:39:06;102522.06;;;-1.79;93.19
57904;BME280;43720;47.462;19.030;2023-02-13T06:42:08;102518.72;;;-1.78;93.48
57904;BME280;43720;47.462;19.030;2023-02-13T06:45:13;102518.88;;;-1.68;92.94
57904;BME280;43720;47.462;19.030;2023-02-13T06:48:16;102514.63;;;-1.59;92.91
57904;BME280;43720;47.462;19.030;2023-02-13T06:51:18;102509.97;;;-1.45;91.77
57904;BME280;43720;47.462;19.030;2023-02-13T06:54:21;102504.31;;;-1.24;90.44
57904;BME280;43720;47.462;19.030;2023-02-13T06:57:38;102510.63;;;-1.20;90.12
57904;BME280;43720;47.462;19.030;2023-02-13T07:00:40;102515.31;;;-1.08;89.84
57904;BME280;43720;47.462;19.030;2023-02-13T07:03:42;102508.06;;;-1.12;90.32
57904;BME280;43720;47.462;19.030;2023-02-13T07:06:45;102513.59;;;-0.99;89.59
57904;BME280;43720;47.462;19.030;2023-02-13T07:09:47;102510.00;;;-0.64;87.97
57904;BME280;43720;47.462;19.030;2023-02-13T07:12:49;102516.78;;;-0.65;88.51
57904;BME280;43720;47.462;19.030;2023-02-13T07:16:06;102512.66;;;-0.54;88.50
57904;BME280;43720;47.462;19.030;2023-02-13T07:19:08;102514.69;;;-0.41;88.10
57904;BME280;43720;47.462;19.030;2023-02-13T07:22:10;102512.69;;;-0.16;86.68
57904;BME280;43720;47.462;19.030;2023-02-13T07:25:13;102518.41;;;-0.10;86.19
57904;BME280;43720;47.462;19.030;2023-02-13T07:28:15;102517.72;;;-0.18;86.86
57904;BME280;43720;47.462;19.030;2023-02-13T07:31:18;102517.72;;;-0.18;88.23
57904;BME280;43720;47.462;19.030;2023-02-13T07:34:23;102518.84;;;-0.06;87.89
57904;BME280;43720;47.462;19.030;2023-02-13T07:37:27;102508.84;;;0.35;86.04
57904;BME280;43720;47.462;19.030;2023-02-13T07:40:29;102520.12;;;0.56;84.76
57904;BME280;43720;47.462;19.030;2023-02-13T07:43:32;102514.16;;;0.47;85.48
57904;BME280;43720;47.462;19.030;2023-02-13T07:46:34;102518.94;;;0.53;85.14
57904;BME280;43720;47.462;19.030;2023-02-13T07:49:37;102521.50;;;0.53;85.41
57904;BME280;43720;47.462;19.030;2023-02-13T07:52:39;102525.00;;;0.82;84.54
57904;BME280;43720;47.462;19.030;2023-02-13T07:55:42;102531.69;;;1.09;83.11
57904;BME280;43720;47.462;19.030;2023-02-13T07:58:44;102529.03;;;1.28;82.82
57904;BME280;43720;47.462;19.030;2023-02-13T08:01:46;102528.25;;;1.39;81.39
57904;BME280;43720;47.462;19.030;2023-02-13T08:04:49;102532.13;;;1.44;82.64
57904;BME280;43720;47.462;19.030;2023-02-13T08:07:52;102531.53;;;1.67;81.62
57904;BME280;43720;47.462;19.030;2023-02-13T08:10:55;102541.44;;;1.83;81.21
57904;BME280;43720;47.462;19.030;2023-02-13T08:14:16;102535.63;;;1.96;80.57
57904;BME280;43720;47.462;19.030;2023-02-13T08:17:19;102519.59;;;2.41;76.81
57904;BME280;43720;47.462;19.030;2023-02-13T08:20:21;102517.81;;;2.62;74.73
57904;BME280;43720;47.462;19.030;2023-02-13T08:23:25;102510.41;;;2.77;75.12
57904;BME280;43720;47.462;19.030;2023-02-13T08:26:30;102510.84;;;2.93;74.95
57904;BME280;43720;47.462;19.030;2023-02-13T08:29:32;102511.22;;;2.98;73.02
57904;BME280;43720;47.462;19.030;2023-02-13T08:32:35;102511.00;;;2.94;74.22
57904;BME280;43720;47.462;19.030;2023-02-13T08:35:54;102505.50;;;3.24;72.21
57904;BME280;43720;47.462;19.030;2023-02-13T08:38:57;102499.09;;;3.18;71.62
57904;BME280;43720;47.462;19.030;2023-02-13T08:42:00;102496.62;;;3.20;70.97
57904;BME280;43720;47.462;19.030;2023-02-13T08:45:03;102494.87;;;3.31;71.27
57904;BME280;43720;47.462;19.030;2023-02-13T08:48:06;102498.69;;;3.58;69.93
57904;BME280;43720;47.462;19.030;2023-02-13T08:51:11;102494.78;;;3.75;68.72
57904;BME280;43720;47.462;19.030;2023-02-13T08:54:15;102491.47;;;3.87;69.26
57904;BME280;43720;47.462;19.030;2023-02-13T08:57:17;102495.53;;;3.96;66.43
57904;BME280;43720;47.462;19.030;2023-02-13T09:00:19;102491.31;;;3.74;67.70
57904;BME280;43720;47.462;19.030;2023-02-13T09:03:22;102499.44;;;3.90;67.49
57904;BME280;43720;47.462;19.030;2023-02-13T09:06:26;102495.97;;;4.02;65.84
57904;BME280;43720;47.462;19.030;2023-02-13T09:09:29;102495.53;;;3.96;66.09
57904;BME280;43720;47.462;19.030;2023-02-13T09:12:33;102496.19;;;3.93;66.08
57904;BME280;43720;47.462;19.030;2023-02-13T09:15:39;102498.88;;;3.95;66.52
57904;BME280;43720;47.462;19.030;2023-02-13T09:18:42;102488.34;;;4.03;66.40
57904;BME280;43720;47.462;19.030;2023-02-13T09:21:44;102491.94;;;4.17;65.31
57904;BME280;43720;47.462;19.030;2023-02-13T09:24:46;102492.06;;;4.30;65.32
57904;BME280;43720;47.462;19.030;2023-02-13T09:27:49;102495.09;;;4.48;65.05
57904;BME280;43720;47.462;19.030;2023-02-13T09:30:51;102496.44;;;4.66;64.34
57904;BME280;43720;47.462;19.030;2023-02-13T09:33:53;102492.91;;;4.89;63.37
57904;BME280;43720;47.462;19.030;2023-02-13T09:36:56;102498.75;;;4.87;63.47
57904;BME280;43720;47.462;19.030;2023-02-13T09:39:58;102504.94;;;5.01;63.45
57904;BME280;43720;47.462;19.030;2023-02-13T09:43:12;102494.72;;;5.27;61.72
57904;BME280;43720;47.462;19.030;2023-02-13T09:48:39;102490.44;;;5.28;63.31
57904;BME280;43720;47.462;19.030;2023-02-13T09:51:46;102482.16;;;5.33;62.64
57904;BME280;43720;47.462;19.030;2023-02-13T09:54:49;102486.09;;;5.40;61.89
57904;BME280;43720;47.462;19.030;2023-02-13T09:58:03;102475.66;;;5.52;62.62
57904;BME280;43720;47.462;19.030;2023-02-13T10:01:30;102479.66;;;5.60;61.86
57904;BME280;43720;47.462;19.030;2023-02-13T10:04:48;102475.09;;;5.69;61.57
57904;BME280;43720;47.462;19.030;2023-02-13T10:17:48;102460.97;;;5.91;60.00
57904;BME280;43720;47.462;19.030;2023-02-13T10:20:53;102452.22;;;5.88;61.56
57904;BME280;43720;47.462;19.030;2023-02-13T10:24:06;102456.75;;;5.79;61.03
57904;BME280;43720;47.462;19.030;2023-02-13T10:27:20;102452.38;;;5.92;61.13
57904;BME280;43720;47.462;19.030;2023-02-13T10:30:44;102448.53;;;5.98;60.95
57904;BME280;43720;47.462;19.030;2023-02-13T10:33:51;102449.66;;;6.02;60.83
57904;BME280;43720;47.462;19.030;2023-02-13T10:36:54;102445.06;;;6.37;59.80
57904;BME280;43720;47.462;19.030;2023-02-13T10:39:56;102443.06;;;6.33;59.36
57904;BME280;43720;47.462;19.030;2023-02-13T10:43:08;102446.16;;;6.15;59.71
57904;BME280;43720;47.462;19.030;2023-02-13T10:53:10;102435.38;;;6.35;59.11
57904;BME280;43720;47.462;19.030;2023-02-13T10:56:22;102419.47;;;6.44;58.49
57904;BME280;43720;47.462;19.030;2023-02-13T11:02:32;102411.16;;;6.62;57.77
57904;BME280;43720;47.462;19.030;2023-02-13T11:05:37;102402.38;;;6.89;58.20
57904;BME280;43720;47.462;19.030;2023-02-13T11:08:46;102405.75;;;7.01;58.10
57904;BME280;43720;47.462;19.030;2023-02-13T11:11:49;102398.31;;;7.07;57.36
57904;BME280;43720;47.462;19.030;2023-02-13T11:15:00;102394.25;;;7.12;57.26
57904;BME280;43720;47.462;19.030;2023-02-13T11:18:12;102389.84;;;7.24;57.74
57904;BME280;43720;47.462;19.030;2023-02-13T11:21:21;102375.28;;;7.28;57.15
57904;BME280;43720;47.462;19.030;2023-02-13T11:24:26;102375.22;;;7.41;57.29
57904;BME280;43720;47.462;19.030;2023-02-13T11:27:37;102381.69;;;7.48;57.22
57904;BME280;43720;47.462;19.030;2023-02-13T11:30:40;102365.25;;;7.49;56.46
57904;BME280;43720;47.462;19.030;2023-02-13T11:33:43;102366.88;;;7.62;57.12
57904;BME280;43720;47.462;19.030;2023-02-13T11:36:50;102360.31;;;7.68;56.56
57904;BME280;43720;47.462;19.030;2023-02-13T11:39:58;102355.81;;;7.95;56.84
57904;BME280;43720;47.462;19.030;2023-02-13T11:43:01;102359.28;;;7.96;55.55
57904;BME280;43720;47.462;19.030;2023-02-13T11:46:06;102350.59;;;7.95;56.03
57904;BME280;43720;47.462;19.030;2023-02-13T11:49:23;102347.47;;;7.86;55.73
57904;BME280;43720;47.462;19.030;2023-02-13T11:52:28;102345.37;;;7.95;55.65
57904;BME280;43720;47.462;19.030;2023-02-13T11:55:34;102339.28;;;7.95;56.58
57904;BME280;43720;47.462;19.030;2023-02-13T11:58:38;102340.81;;;7.91;56.01
57904;BME280;43720;47.462;19.030;2023-02-13T12:01:40;102335.78;;;7.94;56.05
57904;BME280;43720;47.462;19.030;2023-02-13T12:04:45;102338.00;;;8.03;56.02
57904;BME280;43720;47.462;19.030;2023-02-13T12:07:48;102335.22;;;8.00;56.03
57904;BME280;43720;47.462;19.030;2023-02-13T12:10:51;102335.03;;;7.97;56.48
57904;BME280;43720;47.462;19.030;2023-02-13T12:13:56;102335.66;;;8.07;55.88
57904;BME280;43720;47.462;19.030;2023-02-13T12:17:06;102337.28;;;8.37;55.66
57904;BME280;43720;47.462;19.030;2023-02-13T12:20:12;102326.38;;;9.09;53.01
57904;BME280;43720;47.462;19.030;2023-02-13T12:23:41;102327.53;;;9.14;52.34
57904;BME280;43720;47.462;19.030;2023-02-13T12:26:53;102320.63;;;8.82;54.28
57904;BME280;43720;47.462;19.030;2023-02-13T12:53:56;102278.50;;;8.58;56.25
57904;BME280;43720;47.462;19.030;2023-02-13T12:57:05;102273.69;;;8.66;55.66
57904;BME280;43720;47.462;19.030;2023-02-13T13:00:29;102272.94;;;8.85;55.67
57904;BME280;43720;47.462;19.030;2023-02-13T13:03:41;102254.03;;;8.89;55.04
57904;BME280;43720;47.462;19.030;2023-02-13T13:07:16;102250.25;;;9.00;54.52
57904;BME280;43720;47.462;19.030;2023-02-13T13:26:48;102242.63;;;9.74;52.92
57904;BME280;43720;47.462;19.030;2023-02-13T13:30:00;102244.81;;;9.65;53.59
57904;BME280;43720;47.462;19.030;2023-02-13T13:33:05;102241.34;;;9.66;53.80
57904;BME280;43720;47.462;19.030;2023-02-13T13:36:37;102247.31;;;9.82;54.00
57904;BME280;43720;47.462;19.030;2023-02-13T13:50:39;102241.03;;;9.96;53.18
57904;BME280;43720;47.462;19.030;2023-02-13T13:57:05;102228.66;;;9.56;54.13
57904;BME280;43720;47.462;19.030;2023-02-13T14:03:32;102235.09;;;9.27;55.67
57904;BME280;43720;47.462;19.030;2023-02-13T14:09:42;102244.31;;;9.20;55.51
57904;BME280;43720;47.462;19.030;2023-02-13T14:15:59;102234.00;;;8.88;56.03
57904;BME280;43720;47.462;19.030;2023-02-13T14:19:01;102234.38;;;8.95;56.50
57904;BME280;43720;47.462;19.030;2023-02-13T14:25:26;102249.94;;;8.94;57.58
57904;BME280;43720;47.462;19.030;2023-02-13T14:28:29;102254.91;;;8.89;57.98
57904;BME280;43720;47.462;19.030;2023-02-13T14:31:36;102245.09;;;8.67;58.24
57904;BME280;43720;47.462;19.030;2023-02-13T14:34:50;102256.09;;;8.62;58.57
57904;BME280;43720;47.462;19.030;2023-02-13T14:37:58;102254.09;;;8.56;59.16
57904;BME280;43720;47.462;19.030;2023-02-13T14:41:01;102260.25;;;8.42;59.68
57904;BME280;43720;47.462;19.030;2023-02-13T14:44:15;102257.34;;;8.21;60.51
57904;BME280;43720;47.462;19.030;2023-02-13T14:47:39;102258.09;;;8.18;60.95
57904;BME280;43720;47.462;19.030;2023-02-13T14:50:52;102258.56;;;8.11;61.38
57904;BME280;43720;47.462;19.030;2023-02-13T14:54:08;102259.41;;;8.10;61.80
57904;BME280;43720;47.462;19.030;2023-02-13T14:57:44;102268.66;;;8.05;62.23
57904;BME280;43720;47.462;19.030;2023-02-13T15:01:00;102263.19;;;8.00;63.03
57904;BME280;43720;47.462;19.030;2023-02-13T15:04:06;102273.81;;;7.89;62.92
57904;BME280;43720;47.462;19.030;2023-02-13T15:07:18;102259.50;;;7.66;63.94
57904;BME280;43720;47.462;19.030;2023-02-13T15:13:34;102257.53;;;7.62;64.76
57904;BME280;43720;47.462;19.030;2023-02-13T15:16:38;102257.72;;;7.65;64.65
57904;BME280;43720;47.462;19.030;2023-02-13T15:19:49;102264.75;;;7.51;65.52
57904;BME280;43720;47.462;19.030;2023-02-13T15:22:52;102258.19;;;7.43;65.64
57904;BME280;43720;47.462;19.030;2023-02-13T15:29:13;102271.06;;;7.40;66.32
57904;BME280;43720;47.462;19.030;2023-02-13T15:32:35;102275.00;;;7.33;66.55
57904;BME280;43720;47.462;19.030;2023-02-13T15:35:40;102274.09;;;7.47;65.85
57904;BME280;43720;47.462;19.030;2023-02-13T15:38:43;102270.25;;;7.41;66.51
57904;BME280;43720;47.462;19.030;2023-02-13T15:41:51;102267.28;;;7.49;65.81
57904;BME280;43720;47.462;19.030;2023-02-13T15:44:56;102259.06;;;7.58;65.52
57904;BME280;43720;47.462;19.030;2023-02-13T15:47:58;102248.84;;;7.61;65.46
57904;BME280;43720;47.462;19.030;2023-02-13T15:51:01;102254.19;;;7.48;65.35
57904;BME280;43720;47.462;19.030;2023-02-13T15:54:25;102259.72;;;7.54;65.96
57904;BME280;43720;47.462;19.030;2023-02-13T15:57:28;102253.69;;;7.55;65.71
57904;BME280;43720;47.462;19.030;2023-02-13T16:00:34;102258.62;;;7.50;66.05
57904;BME280;43720;47.462;19.030;2023-02-13T16:03:39;102261.59;;;7.56;66.09
57904;BME280;43720;47.462;19.030;2023-02-13T16:06:44;102266.00;;;7.57;65.62
57904;BME280;43720;47.462;19.030;2023-02-13T16:09:47;102256.16;;;7.52;65.42
57904;BME280;43720;47.462;19.030;2023-02-13T16:12:49;102255.97;;;7.49;66.13
57904;BME280;43720;47.462;19.030;2023-02-13T16:15:52;102267.97;;;7.47;66.20
57904;BME280;43720;47.462;19.030;2023-02-13T16:18:54;102271.00;;;7.54;66.05
57904;BME280;43720;47.462;19.030;2023-02-13T16:22:00;102275.78;;;7.47;66.46
57904;BME280;43720;47.462;19.030;2023-02-13T16:28:19;102275.16;;;7.51;65.31
57904;BME280;43720;47.462;19.030;2023-02-13T16:31:22;102269.06;;;7.35;66.01
57904;BME280;43720;47.462;19.030;2023-02-13T16:34:27;102264.41;;;7.30;65.90
57904;BME280;43720;47.462;19.030;2023-02-13T16:37:31;102262.06;;;7.20;66.53
